sensor_id;sensor_type;location;lat;lon;timestamp;pressure;altitude;pressure_sealevel;temperature;humidity
65784;BME280;52532;53.358;-1.488;2022-08-19T00:02:34;100058.17;;;22.91;59.83
65784;BME280;52532;53.358;-1.488;2022-08-19T00:05:41;100060.29;;;24.55;56.19
65784;BME280;52532;53.358;-1.488;2022-08-19T00:08:44;100061.86;;;23.88;56.78
65784;BME280;52532;53.358;-1.488;2022-08-19T00:11:47;100059.88;;;22.51;59.87
65784;BME280;52532;53.358;-1.488;2022-08-19T00:14:50;100058.38;;;22.63;60.18
65784;BME280;52532;53.358;-1.488;2022-08-19T00:17:56;100058.15;;;22.20;61.32
65784;BME280;52532;53.358;-1.488;2022-08-19T00:20:59;100064.26;;;23.50;57.93
65784;BME280;52532;53.358;-1.488;2022-08-19T00:24:02;100068.16;;;24.22;56.01
65784;BME280;52532;53.358;-1.488;2022-08-19T00:27:05;100064.33;;;22.04;59.28
65784;BME280;52532;53.358;-1.488;2022-08-19T00:30:09;100088.82;;;21.40;63.75
65784;BME280;52532;53.358;-1.488;2022-08-19T00:33:13;100095.65;;;20.14;59.55
65784;BME280;52532;53.358;-1.488;2022-08-19T00:36:16;100099.75;;;19.60;60.01
65784;BME280;52532;53.358;-1.488;2022-08-19T00:39:20;100101.46;;;19.20;59.97
65784;BME280;52532;53.358;-1.488;2022-08-19T00:42:23;100106.70;;;19.53;58.37
65784;BME280;52532;53.358;-1.488;2022-08-19T00:45:34;100106.44;;;18.63;60.10
65784;BME280;52532;53.358;-1.488;2022-08-19T00:48:38;100108.74;;;19.19;57.56
65784;BME280;52532;53.358;-1.488;2022-08-19T00:51:41;100107.05;;;18.29;60.47
65784;BME280;52532;53.358;-1.488;2022-08-19T00:54:46;100104.36;;;18.64;59.47
65784;BME280;52532;53.358;-1.488;2022-08-19T00:57:54;100101.40;;;19.54;58.26
65784;BME280;52532;53.358;-1.488;2022-08-19T01:00:58;100100.45;;;19.73;58.50
65784;BME280;52532;53.358;-1.488;2022-08-19T01:04:01;100104.43;;;20.79;55.98
65784;BME280;52532;53.358;-1.488;2022-08-19T01:07:04;100106.92;;;18.81;59.22
65784;BME280;52532;53.358;-1.488;2022-08-19T01:10:10;100117.17;;;17.56;63.57
65784;BME280;52532;53.358;-1.488;2022-08-19T01:13:15;100113.20;;;18.96;59.34
65784;BME280;52532;53.358;-1.488;2022-08-19T01:16:20;100115.54;;;19.92;56.32
65784;BME280;52532;53.358;-1.488;2022-08-19T01:19:28;100113.63;;;19.56;57.11
65784;BME280;52532;53.358;-1.488;2022-08-19T01:22:36;100106.80;;;19.45;55.49
65784;BME280;52532;53.358;-1.488;2022-08-19T01:25:46;100112.72;;;19.37;54.93
65784;BME280;52532;53.358;-1.488;2022-08-19T01:28:53;100122.14;;;20.35;53.10
65784;BME280;52532;53.358;-1.488;2022-08-19T01:31:57;100124.99;;;20.08;54.01
65784;BME280;52532;53.358;-1.488;2022-08-19T01:35:01;100136.05;;;17.75;58.71
65784;BME280;52532;53.358;-1.488;2022-08-19T01:38:06;100133.84;;;19.11;55.55
65784;BME280;52532;53.358;-1.488;2022-08-19T01:41:10;100131.70;;;20.03;53.27
65784;BME280;52532;53.358;-1.488;2022-08-19T01:44:14;100136.74;;;21.45;50.47
65784;BME280;52532;53.358;-1.488;2022-08-19T01:47:17;100143.56;;;21.08;49.83
65784;BME280;52532;53.358;-1.488;2022-08-19T01:50:21;100135.34;;;19.81;50.31
65784;BME280;52532;53.358;-1.488;2022-08-19T01:53:24;100121.56;;;19.11;52.14
65784;BME280;52532;53.358;-1.488;2022-08-19T01:56:27;100128.20;;;20.08;49.91
65784;BME280;52532;53.358;-1.488;2022-08-19T01:59:30;100130.67;;;19.36;52.82
65784;BME280;52532;53.358;-1.488;2022-08-19T02:02:34;100138.15;;;19.60;51.83
65784;BME280;52532;53.358;-1.488;2022-08-19T02:05:37;100139.63;;;20.19;52.12
65784;BME280;52532;53.358;-1.488;2022-08-19T02:08:40;100142.90;;;19.44;51.75
65784;BME280;52532;53.358;-1.488;2022-08-19T02:11:43;100146.87;;;19.31;51.95
65784;BME280;52532;53.358;-1.488;2022-08-19T02:14:46;100154.50;;;18.69;54.86
65784;BME280;52532;53.358;-1.488;2022-08-19T02:17:49;100158.88;;;19.36;53.25
65784;BME280;52532;53.358;-1.488;2022-08-19T02:20:52;100161.70;;;20.48;51.56
65784;BME280;52532;53.358;-1.488;2022-08-19T02:23:55;100170.72;;;20.68;51.02
65784;BME280;52532;53.358;-1.488;2022-08-19T02:26:59;100170.80;;;19.61;51.94
65784;BME280;52532;53.358;-1.488;2022-08-19T02:30:03;100170.34;;;19.89;51.66
65784;BME280;52532;53.358;-1.488;2022-08-19T02:33:06;100175.72;;;20.56;50.84
65784;BME280;52532;53.358;-1.488;2022-08-19T02:36:10;100175.82;;;18.87;53.89
65784;BME280;52532;53.358;-1.488;2022-08-19T02:39:14;100171.18;;;18.37;55.28
65784;BME280;52532;53.358;-1.488;2022-08-19T02:42:16;100175.69;;;17.41;57.93
65784;BME280;52532;53.358;-1.488;2022-08-19T02:45:20;100170.25;;;17.72;57.17
65784;BME280;52532;53.358;-1.488;2022-08-19T02:48:24;100171.87;;;18.27;55.25
65784;BME280;52532;53.358;-1.488;2022-08-19T02:51:30;100172.11;;;19.42;51.85
65784;BME280;52532;53.358;-1.488;2022-08-19T02:54:33;100177.35;;;19.29;52.17
65784;BME280;52532;53.358;-1.488;2022-08-19T02:57:36;100181.25;;;19.34;53.15
65784;BME280;52532;53.358;-1.488;2022-08-19T03:00:44;100187.23;;;19.69;50.96
65784;BME280;52532;53.358;-1.488;2022-08-19T03:03:47;100191.41;;;19.29;52.71
65784;BME280;52532;53.358;-1.488;2022-08-19T03:06:50;100193.03;;;16.88;56.44
65784;BME280;52532;53.358;-1.488;2022-08-19T03:09:53;100193.63;;;16.81;58.45
65784;BME280;52532;53.358;-1.488;2022-08-19T03:12:56;100201.53;;;18.14;53.30
65784;BME280;52532;53.358;-1.488;2022-08-19T03:15:59;100196.31;;;18.97;51.87
65784;BME280;52532;53.358;-1.488;2022-08-19T03:19:06;100194.96;;;20.18;48.98
65784;BME280;52532;53.358;-1.488;2022-08-19T03:22:09;100195.10;;;18.51;52.13
65784;BME280;52532;53.358;-1.488;2022-08-19T03:25:12;100202.05;;;17.75;54.75
65784;BME280;52532;53.358;-1.488;2022-08-19T03:28:16;100198.57;;;18.72;53.62
65784;BME280;52532;53.358;-1.488;2022-08-19T03:31:22;100197.94;;;19.18;52.44
65784;BME280;52532;53.358;-1.488;2022-08-19T03:34:27;100207.71;;;17.86;54.91
65784;BME280;52532;53.358;-1.488;2022-08-19T03:37:30;100207.13;;;17.46;55.25
65784;BME280;52532;53.358;-1.488;2022-08-19T03:40:36;100209.18;;;18.17;52.85
65784;BME280;52532;53.358;-1.488;2022-08-19T03:43:40;100204.46;;;19.49;51.01
65784;BME280;52532;53.358;-1.488;2022-08-19T03:46:44;100207.96;;;18.50;51.89
65784;BME280;52532;53.358;-1.488;2022-08-19T03:49:47;100211.63;;;18.92;51.18
65784;BME280;52532;53.358;-1.488;2022-08-19T03:52:51;100218.62;;;18.51;51.86
65784;BME280;52532;53.358;-1.488;2022-08-19T03:55:54;100220.90;;;18.37;51.64
65784;BME280;52532;53.358;-1.488;2022-08-19T03:58:58;100221.16;;;17.94;52.93
65784;BME280;52532;53.358;-1.488;2022-08-19T04:02:07;100211.68;;;16.72;57.38
65784;BME280;52532;53.358;-1.488;2022-08-19T04:05:11;100208.10;;;18.21;53.15
65784;BME280;52532;53.358;-1.488;2022-08-19T04:08:15;100209.62;;;16.16;56.77
65784;BME280;52532;53.358;-1.488;2022-08-19T04:11:27;100214.48;;;18.19;53.79
65784;BME280;52532;53.358;-1.488;2022-08-19T04:14:30;100219.55;;;16.85;57.03
65784;BME280;52532;53.358;-1.488;2022-08-19T04:17:33;100214.61;;;16.44;55.47
65784;BME280;52532;53.358;-1.488;2022-08-19T04:20:42;100227.25;;;16.72;58.64
65784;BME280;52532;53.358;-1.488;2022-08-19T04:23:46;100232.45;;;16.85;55.84
65784;BME280;52532;53.358;-1.488;2022-08-19T04:26:49;100235.52;;;17.07;55.33
65784;BME280;52532;53.358;-1.488;2022-08-19T04:29:52;100237.89;;;17.00;56.07
65784;BME280;52532;53.358;-1.488;2022-08-19T04:32:55;100238.95;;;17.15;57.51
65784;BME280;52532;53.358;-1.488;2022-08-19T04:35:58;100230.04;;;16.06;61.36
65784;BME280;52532;53.358;-1.488;2022-08-19T04:39:05;100235.34;;;15.47;62.60
65784;BME280;52532;53.358;-1.488;2022-08-19T04:42:08;100244.26;;;16.39;59.23
65784;BME280;52532;53.358;-1.488;2022-08-19T04:45:44;100247.97;;;16.17;60.67
65784;BME280;52532;53.358;-1.488;2022-08-19T04:48:47;100253.05;;;16.33;58.99
65784;BME280;52532;53.358;-1.488;2022-08-19T04:51:51;100260.18;;;16.62;57.99
65784;BME280;52532;53.358;-1.488;2022-08-19T04:54:56;100265.65;;;16.40;58.41
65784;BME280;52532;53.358;-1.488;2022-08-19T04:57:59;100266.76;;;16.82;57.78
65784;BME280;52532;53.358;-1.488;2022-08-19T05:01:02;100272.86;;;18.12;54.64
65784;BME280;52532;53.358;-1.488;2022-08-19T05:04:06;100277.40;;;18.32;54.15
65784;BME280;52532;53.358;-1.488;2022-08-19T05:07:09;100280.87;;;16.65;56.15
65784;BME280;52532;53.358;-1.488;2022-08-19T05:10:12;100276.80;;;17.98;53.84
65784;BME280;52532;53.358;-1.488;2022-08-19T05:13:16;100281.05;;;19.05;51.81
65784;BME280;52532;53.358;-1.488;2022-08-19T05:16:21;100286.72;;;18.85;51.07
65784;BME280;52532;53.358;-1.488;2022-08-19T05:19:25;100284.00;;;20.44;49.52
65784;BME280;52532;53.358;-1.488;2022-08-19T05:24:38;100299.31;;;19.71;49.96
65784;BME280;52532;53.358;-1.488;2022-08-19T05:27:41;100303.35;;;17.40;54.38
65784;BME280;52532;53.358;-1.488;2022-08-19T05:30:44;100308.96;;;18.63;53.12
65784;BME280;52532;53.358;-1.488;2022-08-19T05:33:48;100311.36;;;19.83;51.20
65784;BME280;52532;53.358;-1.488;2022-08-19T05:36:53;100315.51;;;19.85;50.41
65784;BME280;52532;53.358;-1.488;2022-08-19T05:39:59;100322.80;;;19.79;51.20
65784;BME280;52532;53.358;-1.488;2022-08-19T05:43:02;100322.93;;;18.94;52.75
65784;BME280;52532;53.358;-1.488;2022-08-19T05:46:06;100325.38;;;19.03;51.46
65784;BME280;52532;53.358;-1.488;2022-08-19T05:49:09;100326.42;;;19.29;51.85
65784;BME280;52532;53.358;-1.488;2022-08-19T05:52:14;100330.17;;;18.68;51.12
65784;BME280;52532;53.358;-1.488;2022-08-19T05:55:18;100331.71;;;19.56;49.99
65784;BME280;52532;53.358;-1.488;2022-08-19T05:58:22;100326.95;;;19.12;50.57
65784;BME280;52532;53.358;-1.488;2022-08-19T06:01:26;100323.27;;;17.90;53.22
65784;BME280;52532;53.358;-1.488;2022-08-19T06:04:29;100324.03;;;17.66;54.16
65784;BME280;52532;53.358;-1.488;2022-08-19T06:07:32;100319.41;;;18.56;51.42
65784;BME280;52532;53.358;-1.488;2022-08-19T06:10:35;100321.79;;;17.17;54.37
65784;BME280;52532;53.358;-1.488;2022-08-19T06:13:38;100317.76;;;20.37;49.39
65784;BME280;52532;53.358;-1.488;2022-08-19T06:16:42;100322.85;;;16.63;54.65
65784;BME280;52532;53.358;-1.488;2022-08-19T06:19:45;100321.88;;;15.53;59.59
65784;BME280;52532;53.358;-1.488;2022-08-19T06:22:49;100327.87;;;18.40;52.50
65784;BME280;52532;53.358;-1.488;2022-08-19T06:25:52;100330.38;;;19.02;51.29
65784;BME280;52532;53.358;-1.488;2022-08-19T06:28:55;100328.08;;;18.31;52.50
65784;BME280;52532;53.358;-1.488;2022-08-19T06:32:00;100329.77;;;16.41;55.94
65784;BME280;52532;53.358;-1.488;2022-08-19T06:35:04;100326.56;;;18.30;52.30
65784;BME280;52532;53.358;-1.488;2022-08-19T06:38:08;100331.66;;;17.45;53.33
65784;BME280;52532;53.358;-1.488;2022-08-19T06:41:11;100336.85;;;19.41;50.13
65784;BME280;52532;53.358;-1.488;2022-08-19T06:44:14;100334.15;;;17.61;52.36
65784;BME280;52532;53.358;-1.488;2022-08-19T06:47:20;100335.54;;;16.71;55.89
65784;BME280;52532;53.358;-1.488;2022-08-19T06:50:23;100335.19;;;18.11;53.07
65784;BME280;52532;53.358;-1.488;2022-08-19T06:53:27;100330.77;;;17.84;51.66
65784;BME280;52532;53.358;-1.488;2022-08-19T06:56:32;100332.16;;;18.15;51.49
65784;BME280;52532;53.358;-1.488;2022-08-19T06:59:36;100345.71;;;18.99;50.16
65784;BME280;52532;53.358;-1.488;2022-08-19T07:02:40;100347.69;;;17.94;53.40
65784;BME280;52532;53.358;-1.488;2022-08-19T07:05:43;100349.33;;;17.20;54.22
65784;BME280;52532;53.358;-1.488;2022-08-19T07:08:47;100348.93;;;18.62;50.75
65784;BME280;52532;53.358;-1.488;2022-08-19T07:11:52;100356.61;;;17.74;52.83
65784;BME280;52532;53.358;-1.488;2022-08-19T07:14:55;100354.53;;;17.86;52.53
65784;BME280;52532;53.358;-1.488;2022-08-19T07:17:58;100350.00;;;18.73;50.55
65784;BME280;52532;53.358;-1.488;2022-08-19T07:21:03;100350.04;;;19.15;50.05
65784;BME280;52532;53.358;-1.488;2022-08-19T07:24:07;100351.91;;;16.63;53.95
65784;BME280;52532;53.358;-1.488;2022-08-19T07:27:10;100355.35;;;16.00;57.34
65784;BME280;52532;53.358;-1.488;2022-08-19T07:30:13;100361.28;;;17.49;52.05
65784;BME280;52532;53.358;-1.488;2022-08-19T07:33:16;100361.62;;;15.67;57.17
65784;BME280;52532;53.358;-1.488;2022-08-19T07:36:22;100367.15;;;15.32;59.48
65784;BME280;52532;53.358;-1.488;2022-08-19T07:39:28;100362.33;;;17.75;55.01
65784;BME280;52532;53.358;-1.488;2022-08-19T07:42:31;100361.19;;;16.49;55.52
65784;BME280;52532;53.358;-1.488;2022-08-19T07:45:34;100365.11;;;17.21;53.95
65784;BME280;52532;53.358;-1.488;2022-08-19T07:48:37;100370.57;;;15.49;57.71
65784;BME280;52532;53.358;-1.488;2022-08-19T07:54:52;100371.36;;;17.33;52.76
65784;BME280;52532;53.358;-1.488;2022-08-19T07:58:12;100375.06;;;17.56;52.20
65784;BME280;52532;53.358;-1.488;2022-08-19T08:01:19;100385.32;;;17.62;51.24
65784;BME280;52532;53.358;-1.488;2022-08-19T08:04:23;100390.62;;;17.75;51.80
65784;BME280;52532;53.358;-1.488;2022-08-19T08:09:37;100393.32;;;18.22;48.60
65784;BME280;52532;53.358;-1.488;2022-08-19T08:12:41;100394.64;;;16.60;53.75
65784;BME280;52532;53.358;-1.488;2022-08-19T08:15:44;100388.91;;;16.81;52.71
65784;BME280;52532;53.358;-1.488;2022-08-19T08:18:47;100394.48;;;16.57;53.25
65784;BME280;52532;53.358;-1.488;2022-08-19T08:21:52;100399.06;;;17.76;51.46
65784;BME280;52532;53.358;-1.488;2022-08-19T08:24:56;100402.57;;;18.46;49.19
65784;BME280;52532;53.358;-1.488;2022-08-19T08:28:02;100406.80;;;15.48;52.77
65784;BME280;52532;53.358;-1.488;2022-08-19T08:31:05;100395.95;;;16.92;51.12
65784;BME280;52532;53.358;-1.488;2022-08-19T08:34:10;100397.95;;;16.51;52.24
65784;BME280;52532;53.358;-1.488;2022-08-19T08:37:13;100397.10;;;17.59;50.62
65784;BME280;52532;53.358;-1.488;2022-08-19T08:40:20;100401.69;;;16.69;52.49
65784;BME280;52532;53.358;-1.488;2022-08-19T08:43:27;100402.92;;;16.39;55.39
65784;BME280;52532;53.358;-1.488;2022-08-19T08:46:37;100391.07;;;16.90;51.58
65784;BME280;52532;53.358;-1.488;2022-08-19T08:49:47;100392.63;;;16.61;53.01
65784;BME280;52532;53.358;-1.488;2022-08-19T08:52:54;100391.69;;;16.31;53.94
65784;BME280;52532;53.358;-1.488;2022-08-19T08:56:02;100391.45;;;18.83;48.36
65784;BME280;52532;53.358;-1.488;2022-08-19T08:59:10;100389.09;;;18.22;47.33
65784;BME280;52532;53.358;-1.488;2022-08-19T09:02:15;100396.72;;;16.54;49.94
65784;BME280;52532;53.358;-1.488;2022-08-19T09:05:20;100397.22;;;18.04;48.68
65784;BME280;52532;53.358;-1.488;2022-08-19T09:08:32;100394.10;;;16.95;50.11
65784;BME280;52532;53.358;-1.488;2022-08-19T09:15:03;100408.05;;;16.45;51.26
65784;BME280;52532;53.358;-1.488;2022-08-19T09:18:08;100407.77;;;18.64;47.64
65784;BME280;52532;53.358;-1.488;2022-08-19T09:21:13;100404.64;;;18.39;45.86
65784;BME280;52532;53.358;-1.488;2022-08-19T09:24:17;100408.77;;;17.47;47.97
65784;BME280;52532;53.358;-1.488;2022-08-19T09:27:20;100411.08;;;17.67;47.34
65784;BME280;52532;53.358;-1.488;2022-08-19T09:30:28;100416.40;;;16.84;47.00
65784;BME280;52532;53.358;-1.488;2022-08-19T09:33:31;100409.83;;;18.68;43.17
65784;BME280;52532;53.358;-1.488;2022-08-19T09:36:36;100409.59;;;18.57;44.25
65784;BME280;52532;53.358;-1.488;2022-08-19T09:39:41;100411.43;;;19.04;41.84
65784;BME280;52532;53.358;-1.488;2022-08-19T09:42:45;100410.26;;;19.77;41.79
65784;BME280;52532;53.358;-1.488;2022-08-19T09:45:49;100406.08;;;18.25;43.04
65784;BME280;52532;53.358;-1.488;2022-08-19T09:48:58;100411.16;;;17.48;45.59
65784;BME280;52532;53.358;-1.488;2022-08-19T09:52:02;100400.52;;;16.99;47.35
65784;BME280;52532;53.358;-1.488;2022-08-19T09:55:09;100404.81;;;19.25;42.84
65784;BME280;52532;53.358;-1.488;2022-08-19T09:58:12;100405.80;;;19.48;42.58
65784;BME280;52532;53.358;-1.488;2022-08-19T10:01:18;100412.25;;;18.26;43.26
65784;BME280;52532;53.358;-1.488;2022-08-19T10:04:21;100415.46;;;17.57;47.14
65784;BME280;52532;53.358;-1.488;2022-08-19T10:07:24;100427.57;;;17.72;44.77
65784;BME280;52532;53.358;-1.488;2022-08-19T10:10:27;100426.89;;;18.00;44.53
65784;BME280;52532;53.358;-1.488;2022-08-19T10:13:31;100420.54;;;18.05;41.66
65784;BME280;52532;53.358;-1.488;2022-08-19T10:16:38;100418.21;;;18.71;40.94
65784;BME280;52532;53.358;-1.488;2022-08-19T10:20:09;100421.89;;;19.54;39.85
65784;BME280;52532;53.358;-1.488;2022-08-19T10:23:15;100417.14;;;18.76;40.59
65784;BME280;52532;53.358;-1.488;2022-08-19T10:26:21;100411.80;;;18.90;40.05
65784;BME280;52532;53.358;-1.488;2022-08-19T10:29:26;100415.82;;;18.16;40.45
65784;BME280;52532;53.358;-1.488;2022-08-19T10:32:32;100417.93;;;18.67;39.06
65784;BME280;52532;53.358;-1.488;2022-08-19T10:35:38;100419.05;;;20.46;37.76
65784;BME280;52532;53.358;-1.488;2022-08-19T10:38:44;100418.05;;;20.60;36.29
65784;BME280;52532;53.358;-1.488;2022-08-19T10:41:48;100414.54;;;19.07;38.56
65784;BME280;52532;53.358;-1.488;2022-08-19T10:44:51;100409.12;;;18.55;40.45
65784;BME280;52532;53.358;-1.488;2022-08-19T10:47:55;100417.94;;;18.16;42.70
65784;BME280;52532;53.358;-1.488;2022-08-19T10:50:58;100411.67;;;19.61;40.54
65784;BME280;52532;53.358;-1.488;2022-08-19T10:56:14;100400.70;;;20.86;37.17
65784;BME280;52532;53.358;-1.488;2022-08-19T11:00:23;100410.62;;;19.97;38.23
65784;BME280;52532;53.358;-1.488;2022-08-19T11:03:27;100415.41;;;19.09;41.46
65784;BME280;52532;53.358;-1.488;2022-08-19T11:06:32;100416.33;;;20.23;38.12
65784;BME280;52532;53.358;-1.488;2022-08-19T11:09:38;100421.68;;;19.86;39.55
65784;BME280;52532;53.358;-1.488;2022-08-19T11:12:41;100418.33;;;17.78;43.56
65784;BME280;52532;53.358;-1.488;2022-08-19T11:15:45;100418.64;;;19.19;41.79
65784;BME280;52532;53.358;-1.488;2022-08-19T11:18:50;100423.87;;;18.98;41.68
65784;BME280;52532;53.358;-1.488;2022-08-19T11:21:54;100405.27;;;18.73;39.75
65784;BME280;52532;53.358;-1.488;2022-08-19T11:24:57;100408.56;;;19.31;38.52
65784;BME280;52532;53.358;-1.488;2022-08-19T11:28:00;100411.31;;;18.81;39.27
65784;BME280;52532;53.358;-1.488;2022-08-19T11:31:04;100415.78;;;18.92;39.85
65784;BME280;52532;53.358;-1.488;2022-08-19T11:34:13;100417.53;;;19.88;38.68
65784;BME280;52532;53.358;-1.488;2022-08-19T11:37:18;100411.44;;;18.58;43.43
65784;BME280;52532;53.358;-1.488;2022-08-19T11:40:22;100405.93;;;17.60;42.45
65784;BME280;52532;53.358;-1.488;2022-08-19T11:43:28;100398.28;;;18.40;40.46
65784;BME280;52532;53.358;-1.488;2022-08-19T11:46:32;100401.77;;;19.67;37.86
65784;BME280;52532;53.358;-1.488;2022-08-19T11:49:35;100398.76;;;18.38;40.02
65784;BME280;52532;53.358;-1.488;2022-08-19T11:52:38;100401.31;;;19.00;39.37
65784;BME280;52532;53.358;-1.488;2022-08-19T11:55:42;100404.88;;;20.15;36.73
65784;BME280;52532;53.358;-1.488;2022-08-19T11:58:47;100401.03;;;18.41;41.82
65784;BME280;52532;53.358;-1.488;2022-08-19T12:01:50;100404.41;;;20.22;36.40
65784;BME280;52532;53.358;-1.488;2022-08-19T12:04:53;100413.82;;;19.79;38.18
65784;BME280;52532;53.358;-1.488;2022-08-19T12:07:56;100411.48;;;19.99;38.36
65784;BME280;52532;53.358;-1.488;2022-08-19T12:11:00;100413.54;;;19.42;40.03
65784;BME280;52532;53.358;-1.488;2022-08-19T12:14:04;100412.24;;;18.84;41.04
65784;BME280;52532;53.358;-1.488;2022-08-19T12:17:08;100419.13;;;19.83;40.41
65784;BME280;52532;53.358;-1.488;2022-08-19T12:20:12;100419.67;;;19.32;40.89
65784;BME280;52532;53.358;-1.488;2022-08-19T12:23:17;100412.79;;;18.01;44.33
65784;BME280;52532;53.358;-1.488;2022-08-19T12:26:21;100419.22;;;20.36;40.12
65784;BME280;52532;53.358;-1.488;2022-08-19T12:29:24;100419.28;;;20.43;40.03
65784;BME280;52532;53.358;-1.488;2022-08-19T12:32:31;100421.24;;;20.07;40.36
65784;BME280;52532;53.358;-1.488;2022-08-19T12:35:34;100428.86;;;20.12;40.82
65784;BME280;52532;53.358;-1.488;2022-08-19T12:38:39;100430.18;;;20.76;41.35
65784;BME280;52532;53.358;-1.488;2022-08-19T12:41:42;100431.01;;;21.82;39.40
65784;BME280;52532;53.358;-1.488;2022-08-19T12:44:45;100438.59;;;19.22;41.70
65784;BME280;52532;53.358;-1.488;2022-08-19T12:47:50;100427.29;;;19.86;39.55
65784;BME280;52532;53.358;-1.488;2022-08-19T12:50:55;100424.23;;;19.30;42.65
65784;BME280;52532;53.358;-1.488;2022-08-19T12:53:58;100421.78;;;19.25;43.09
65784;BME280;52532;53.358;-1.488;2022-08-19T12:57:06;100418.29;;;21.03;40.30
65784;BME280;52532;53.358;-1.488;2022-08-19T13:00:13;100425.31;;;19.99;41.65
65784;BME280;52532;53.358;-1.488;2022-08-19T13:03:17;100420.69;;;21.65;37.08
65784;BME280;52532;53.358;-1.488;2022-08-19T13:06:20;100425.19;;;20.61;39.69
65784;BME280;52532;53.358;-1.488;2022-08-19T13:09:23;100414.63;;;19.37;41.21
65784;BME280;52532;53.358;-1.488;2022-08-19T13:12:26;100417.11;;;19.96;41.47
65784;BME280;52532;53.358;-1.488;2022-08-19T13:15:33;100421.99;;;21.55;39.43
65784;BME280;52532;53.358;-1.488;2022-08-19T13:18:38;100426.92;;;21.75;35.19
65784;BME280;52532;53.358;-1.488;2022-08-19T13:21:41;100427.35;;;22.18;35.73
65784;BME280;52532;53.358;-1.488;2022-08-19T13:24:44;100427.50;;;22.30;34.46
65784;BME280;52532;53.358;-1.488;2022-08-19T13:27:49;100421.30;;;22.11;35.26
65784;BME280;52532;53.358;-1.488;2022-08-19T13:30:52;100430.23;;;20.68;35.88
65784;BME280;52532;53.358;-1.488;2022-08-19T13:36:09;100436.09;;;19.78;37.50
65784;BME280;52532;53.358;-1.488;2022-08-19T13:39:12;100425.93;;;21.16;35.04
65784;BME280;52532;53.358;-1.488;2022-08-19T13:42:15;100424.83;;;21.40;35.41
65784;BME280;52532;53.358;-1.488;2022-08-19T13:45:22;100420.37;;;19.96;43.25
65784;BME280;52532;53.358;-1.488;2022-08-19T13:48:27;100425.62;;;21.12;36.79
65784;BME280;52532;53.358;-1.488;2022-08-19T13:51:30;100427.24;;;22.05;35.73
65784;BME280;52532;53.358;-1.488;2022-08-19T13:54:36;100428.89;;;21.92;34.48
65784;BME280;52532;53.358;-1.488;2022-08-19T13:57:41;100444.95;;;19.84;36.84
65784;BME280;52532;53.358;-1.488;2022-08-19T14:00:45;100440.12;;;20.60;36.00
65784;BME280;52532;53.358;-1.488;2022-08-19T14:03:48;100437.57;;;20.25;36.79
65784;BME280;52532;53.358;-1.488;2022-08-19T14:06:51;100432.49;;;20.39;36.75
65784;BME280;52532;53.358;-1.488;2022-08-19T14:09:54;100432.32;;;19.49;38.17
65784;BME280;52532;53.358;-1.488;2022-08-19T14:13:00;100426.61;;;21.06;35.84
65784;BME280;52532;53.358;-1.488;2022-08-19T14:16:08;100435.29;;;21.26;36.51
65784;BME280;52532;53.358;-1.488;2022-08-19T14:19:11;100439.38;;;20.33;37.03
65784;BME280;52532;53.358;-1.488;2022-08-19T14:22:14;100440.69;;;20.78;36.95
65784;BME280;52532;53.358;-1.488;2022-08-19T14:25:18;100444.49;;;20.26;38.10
65784;BME280;52532;53.358;-1.488;2022-08-19T14:28:22;100439.38;;;19.53;39.81
65784;BME280;52532;53.358;-1.488;2022-08-19T14:31:25;100442.24;;;21.25;37.76
65784;BME280;52532;53.358;-1.488;2022-08-19T14:34:28;100447.09;;;20.55;39.21
65784;BME280;52532;53.358;-1.488;2022-08-19T14:37:34;100450.43;;;20.51;37.86
65784;BME280;52532;53.358;-1.488;2022-08-19T14:40:37;100442.45;;;19.48;39.27
65784;BME280;52532;53.358;-1.488;2022-08-19T14:43:41;100440.27;;;19.89;38.27
65784;BME280;52532;53.358;-1.488;2022-08-19T14:46:48;100447.45;;;20.28;38.25
65784;BME280;52532;53.358;-1.488;2022-08-19T14:49:52;100445.34;;;20.37;36.98
65784;BME280;52532;53.358;-1.488;2022-08-19T14:53:00;100445.19;;;20.70;37.67
65784;BME280;52532;53.358;-1.488;2022-08-19T14:56:08;100442.54;;;20.45;38.94
65784;BME280;52532;53.358;-1.488;2022-08-19T14:59:12;100441.58;;;20.60;39.12
65784;BME280;52532;53.358;-1.488;2022-08-19T15:02:15;100438.31;;;21.28;37.60
65784;BME280;52532;53.358;-1.488;2022-08-19T15:05:18;100442.49;;;22.47;36.10
65784;BME280;52532;53.358;-1.488;2022-08-19T15:08:21;100442.52;;;21.93;36.86
65784;BME280;52532;53.358;-1.488;2022-08-19T15:11:27;100442.01;;;21.28;36.22
65784;BME280;52532;53.358;-1.488;2022-08-19T15:14:30;100447.57;;;20.42;38.14
65784;BME280;52532;53.358;-1.488;2022-08-19T15:17:36;100446.35;;;20.37;39.63
65784;BME280;52532;53.358;-1.488;2022-08-19T15:20:39;100450.30;;;21.39;36.45
65784;BME280;52532;53.358;-1.488;2022-08-19T15:23:42;100448.72;;;21.04;37.33
65784;BME280;52532;53.358;-1.488;2022-08-19T15:26:45;100456.31;;;20.41;38.70
65784;BME280;52532;53.358;-1.488;2022-08-19T15:29:48;100447.11;;;20.17;37.43
65784;BME280;52532;53.358;-1.488;2022-08-19T15:32:56;100451.85;;;20.44;39.24
65784;BME280;52532;53.358;-1.488;2022-08-19T15:36:05;100443.78;;;19.59;39.06
65784;BME280;52532;53.358;-1.488;2022-08-19T15:39:14;100440.68;;;20.60;37.84
65784;BME280;52532;53.358;-1.488;2022-08-19T15:42:17;100442.56;;;20.57;38.77
65784;BME280;52532;53.358;-1.488;2022-08-19T15:45:21;100450.99;;;20.59;37.26
65784;BME280;52532;53.358;-1.488;2022-08-19T15:48:24;100450.65;;;20.28;37.53
65784;BME280;52532;53.358;-1.488;2022-08-19T15:51:29;100455.34;;;19.64;40.26
65784;BME280;52532;53.358;-1.488;2022-08-19T15:54:33;100454.61;;;20.33;39.97
65784;BME280;52532;53.358;-1.488;2022-08-19T15:57:35;100451.79;;;20.17;39.70
65784;BME280;52532;53.358;-1.488;2022-08-19T16:01:50;100451.63;;;20.68;39.13
65784;BME280;52532;53.358;-1.488;2022-08-19T16:07:06;100457.42;;;21.69;36.84
65784;BME280;52532;53.358;-1.488;2022-08-19T16:10:09;100453.96;;;21.63;37.60
65784;BME280;52532;53.358;-1.488;2022-08-19T16:13:13;100462.22;;;20.56;38.64